Welcome to La Porte Aviation Services!

An aviation adventure awaits

Current Weather Conditions

Available data for KPPO from the past 2 hours
LA PORTE, IN
Metar
KPPO 220835Z AUTO 14014G19KT 10SM CLR M10/M16 A3033 RMK AO2 T11051156

08:35 UTC

Wind: 140° 14kt

Visibility: 10 SM

Sky:

Temp: -10 deg C / 14 deg F

Dewpoint: -16 deg C / 3.2 deg F

Pressure: 30.33 inHg

Connect with us on Facebook!

Facebook By Weblizar Powered By Weblizar